createdAt,value
2023-05-03T00:01:01.524Z,6.30
2023-05-03T00:03:48.926Z,7.57
2023-05-03T00:06:35.520Z,9.80
2023-05-03T00:09:21.862Z,10.75
2023-05-03T00:12:08.589Z,9.83
2023-05-03T00:14:55.201Z,8.87
2023-05-03T00:17:41.698Z,8.20
2023-05-03T00:20:29.036Z,7.76
2023-05-03T00:23:15.459Z,7.43
2023-05-03T00:26:02.045Z,7.14
2023-05-03T00:28:48.307Z,6.90
2023-05-03T00:31:34.730Z,6.66
2023-05-03T00:34:21.391Z,6.43
2023-05-03T00:37:07.592Z,6.26
2023-05-03T00:39:54.134Z,6.12
2023-05-03T00:42:41.144Z,5.98
2023-05-03T00:45:30.940Z,5.86
2023-05-03T00:48:18.952Z,6.14
2023-05-03T00:51:06.438Z,8.32
2023-05-03T00:53:52.741Z,10.07
2023-05-03T00:56:50.444Z,11.14
2023-05-03T00:59:38.197Z,10.68
2023-05-03T01:02:25.441Z,9.53
2023-05-03T01:05:12.629Z,8.71
2023-05-03T01:08:27.206Z,8.07
2023-05-03T01:11:41.227Z,7.44
2023-05-03T01:14:41.779Z,6.91
2023-05-03T01:17:30.118Z,6.52
2023-05-03T01:20:24.894Z,6.23
2023-05-03T01:23:23.444Z,5.97
2023-05-03T01:26:20.648Z,5.73
2023-05-03T01:29:07.089Z,5.54
2023-05-03T01:31:59.853Z,5.37
2023-05-03T01:34:55.056Z,5.19
2023-05-03T01:37:43.191Z,5.01
2023-05-03T01:40:32.342Z,5.44
2023-05-03T01:43:21.475Z,7.77
2023-05-03T01:46:08.339Z,9.53
2023-05-03T01:48:54.731Z,10.05
2023-05-03T01:51:41.972Z,8.83
2023-05-03T01:54:28.188Z,7.75
2023-05-03T01:57:14.964Z,7.03
2023-05-03T02:00:01.658Z,6.53
2023-05-03T02:02:48.621Z,6.16
2023-05-03T02:05:35.514Z,5.84
2023-05-03T02:08:21.997Z,5.54
2023-05-03T02:11:08.393Z,5.63
2023-05-03T02:13:55.045Z,7.62
2023-05-03T02:16:41.682Z,9.34
2023-05-03T02:19:27.992Z,9.76
2023-05-03T02:22:14.615Z,8.55
2023-05-03T02:25:01.326Z,7.47
2023-05-03T02:27:47.632Z,6.69
2023-05-03T02:30:35.896Z,6.16
2023-05-03T02:33:22.445Z,5.74
2023-05-03T02:36:08.955Z,5.41
2023-05-03T02:38:55.761Z,5.13
2023-05-03T02:41:42.357Z,5.34
2023-05-03T02:44:29.534Z,7.46
2023-05-03T02:47:16.795Z,9.31
2023-05-03T02:50:04.500Z,9.46
2023-05-03T02:52:51.716Z,8.17
2023-05-03T02:55:38.035Z,7.20
2023-05-03T02:58:24.473Z,6.58
2023-05-03T03:01:11.512Z,6.15
2023-05-03T03:03:58.465Z,5.81
2023-05-03T03:06:45.091Z,5.50
2023-05-03T03:09:31.901Z,5.24
2023-05-03T03:12:20.669Z,5.91
2023-05-03T03:15:08.343Z,8.15
2023-05-03T03:17:57.926Z,9.72
2023-05-03T03:20:44.779Z,10.07
2023-05-03T03:23:31.521Z,8.77
2023-05-03T03:26:18.890Z,7.63
2023-05-03T03:29:06.546Z,6.80
2023-05-03T03:31:53.633Z,6.36
2023-05-03T03:34:40.160Z,7.93
2023-05-03T03:37:27.529Z,9.75
2023-05-03T03:40:14.512Z,10.20
2023-05-03T03:43:01.315Z,8.97
2023-05-03T03:45:48.388Z,7.88
2023-05-03T03:48:34.939Z,7.12
2023-05-03T03:51:21.284Z,6.60
2023-05-03T03:54:07.798Z,6.18
2023-05-03T03:56:54.605Z,5.84
2023-05-03T03:59:41.475Z,6.63
2023-05-03T04:02:28.239Z,8.91
2023-05-03T04:05:15.110Z,9.95
2023-05-03T04:08:02.608Z,8.84
2023-05-03T04:10:50.963Z,7.80
2023-05-03T04:13:37.850Z,7.08
2023-05-03T04:16:24.376Z,6.54
2023-05-03T04:19:12.008Z,6.82
2023-05-03T04:21:59.501Z,9.05
2023-05-03T04:24:46.335Z,10.08
2023-05-03T04:27:33.696Z,8.94
2023-05-03T04:30:20.850Z,7.89
2023-05-03T04:33:09.689Z,7.21
2023-05-03T04:35:57.121Z,7.36
2023-05-03T04:38:44.718Z,9.34
2023-05-03T04:41:31.555Z,9.04
2023-05-03T04:44:18.850Z,8.11
2023-05-03T04:47:05.994Z,7.50
2023-05-03T04:49:52.713Z,7.77
2023-05-03T04:52:39.680Z,9.90
2023-05-03T04:55:26.370Z,10.65
2023-05-03T04:58:13.990Z,9.66
2023-05-03T05:01:01.084Z,8.79
2023-05-03T05:03:49.235Z,8.18
2023-05-03T05:06:39.083Z,7.86
2023-05-03T05:09:28.921Z,9.29
2023-05-03T05:12:16.767Z,10.72
2023-05-03T05:15:04.311Z,9.91
2023-05-03T05:17:51.609Z,9.07
2023-05-03T05:20:39.217Z,8.46
2023-05-03T05:23:26.264Z,8.13
2023-05-03T05:26:12.785Z,8.75
2023-05-03T05:29:00.684Z,11.12
2023-05-03T05:31:47.360Z,11.33
2023-05-03T05:34:43.551Z,10.24
2023-05-03T05:37:32.346Z,9.51
2023-05-03T05:40:21.476Z,9.05
2023-05-03T05:43:11.738Z,8.76
2023-05-03T05:45:59.033Z,9.56
2023-05-03T05:48:45.803Z,11.91
2023-05-03T05:51:32.598Z,12.28
2023-05-03T05:54:19.529Z,11.24
2023-05-03T05:57:06.327Z,10.55
2023-05-03T05:59:54.229Z,10.12
2023-05-03T06:02:42.371Z,9.89
2023-05-03T06:05:31.702Z,9.74
2023-05-03T06:08:18.557Z,9.68
2023-05-03T06:11:05.220Z,9.65
2023-05-03T06:13:52.052Z,9.63
2023-05-03T06:16:38.826Z,9.64
2023-05-03T06:19:25.848Z,9.70
2023-05-03T06:22:12.152Z,9.78
2023-05-03T06:24:59.193Z,9.87
2023-05-03T06:27:45.973Z,9.97
2023-05-03T06:30:33.171Z,10.05
2023-05-03T06:33:27.026Z,10.13
2023-05-03T06:36:14.618Z,10.25
2023-05-03T06:39:04.509Z,10.39
2023-05-03T06:41:51.727Z,10.52
2023-05-03T06:44:38.379Z,10.65
2023-05-03T06:47:25.132Z,10.73
2023-05-03T06:50:12.073Z,10.83
2023-05-03T06:52:58.340Z,10.94
2023-05-03T06:55:46.114Z,11.06
2023-05-03T06:58:32.672Z,11.14
2023-05-03T07:01:20.807Z,11.22
2023-05-03T07:04:07.272Z,11.35
2023-05-03T07:06:56.693Z,11.54
2023-05-03T07:09:44.000Z,11.66
2023-05-03T07:12:30.803Z,11.77
2023-05-03T07:15:17.199Z,11.85
2023-05-03T07:18:03.846Z,11.88
2023-05-03T07:20:50.425Z,11.87
2023-05-03T07:23:36.733Z,11.89
2023-05-03T07:26:23.301Z,11.98
2023-05-03T07:29:09.601Z,12.06
2023-05-03T07:31:55.970Z,12.17
2023-05-03T07:34:42.535Z,12.32
2023-05-03T07:37:29.188Z,12.51
2023-05-03T07:40:15.571Z,12.67
2023-05-03T07:43:01.934Z,12.73
2023-05-03T07:45:48.113Z,12.76
2023-05-03T07:48:34.599Z,12.65
2023-05-03T07:51:21.253Z,12.58
2023-05-03T07:54:07.736Z,12.68
2023-05-03T07:56:55.602Z,12.85
2023-05-03T07:59:43.527Z,12.90
2023-05-03T08:02:30.415Z,12.89
2023-05-03T08:05:17.930Z,12.88
2023-05-03T08:08:05.602Z,13.10
2023-05-03T08:10:52.974Z,13.32
2023-05-03T08:13:39.130Z,13.50
2023-05-03T08:16:26.265Z,13.68
2023-05-03T08:19:12.952Z,13.83
2023-05-03T08:21:59.330Z,13.79
2023-05-03T08:24:45.692Z,13.77
2023-05-03T08:27:32.943Z,13.76
2023-05-03T08:30:22.004Z,13.74
2023-05-03T08:33:11.131Z,13.70
2023-05-03T08:35:57.521Z,13.76
2023-05-03T08:38:44.031Z,13.85
2023-05-03T08:41:31.457Z,13.94
2023-05-03T08:44:25.776Z,14.07
2023-05-03T08:47:15.153Z,14.25
2023-05-03T08:50:05.032Z,14.27
2023-05-03T08:52:51.973Z,14.06
2023-05-03T08:55:38.858Z,13.89
2023-05-03T08:58:25.423Z,14.08
2023-05-03T09:01:14.519Z,14.33
2023-05-03T09:04:02.051Z,14.46
2023-05-03T09:06:48.554Z,14.50
2023-05-03T09:09:35.520Z,14.59
2023-05-03T09:12:36.197Z,14.68
2023-05-03T09:15:22.648Z,14.75
2023-05-03T09:18:19.995Z,14.75
2023-05-03T09:21:06.296Z,14.57
2023-05-03T09:23:52.846Z,14.56
2023-05-03T09:26:40.891Z,14.64
2023-05-03T09:29:29.385Z,14.72
2023-05-03T09:32:17.261Z,14.51
2023-05-03T09:35:10.689Z,14.42
2023-05-03T09:37:56.991Z,14.55
2023-05-03T09:40:48.168Z,14.73
2023-05-03T09:43:35.898Z,14.99
2023-05-03T09:46:27.452Z,15.23
2023-05-03T09:49:15.121Z,15.49
2023-05-03T09:52:03.532Z,15.54
2023-05-03T09:54:50.454Z,15.30
2023-05-03T09:57:37.455Z,14.91
2023-05-03T10:00:25.457Z,14.58
2023-05-03T10:03:20.264Z,14.59
2023-05-03T10:06:15.358Z,14.94
2023-05-03T10:09:28.813Z,15.39
2023-05-03T10:12:18.561Z,15.72
2023-05-03T10:15:08.463Z,15.72
2023-05-03T10:17:57.366Z,15.58
2023-05-03T10:20:54.959Z,15.39
2023-05-03T10:24:12.009Z,15.18
2023-05-03T10:26:58.995Z,15.04
2023-05-03T10:29:48.141Z,15.02
2023-05-03T10:32:43.141Z,14.89
2023-05-03T10:35:30.236Z,15.00
2023-05-03T10:38:20.441Z,15.24
2023-05-03T10:41:07.194Z,15.61
2023-05-03T10:43:53.632Z,15.98
2023-05-03T10:46:40.141Z,16.35
2023-05-03T10:49:27.310Z,16.38
2023-05-03T10:52:36.022Z,16.25
2023-05-03T10:55:25.051Z,16.11
2023-05-03T10:58:15.487Z,15.99
2023-05-03T11:01:04.301Z,15.87
2023-05-03T11:03:58.617Z,15.86
2023-05-03T11:06:49.121Z,15.99
2023-05-03T11:09:35.956Z,16.27
2023-05-03T11:12:22.270Z,16.55
2023-05-03T11:15:11.200Z,16.53
2023-05-03T11:17:57.804Z,16.42
2023-05-03T11:20:44.535Z,16.34
2023-05-03T11:23:31.135Z,16.21
2023-05-03T11:26:18.936Z,16.10
2023-05-03T11:29:05.962Z,16.12
2023-05-03T11:31:52.558Z,16.27
2023-05-03T11:34:40.764Z,16.61
2023-05-03T11:37:27.637Z,16.98
2023-05-03T11:40:18.721Z,17.07
2023-05-03T11:43:07.674Z,17.02
2023-05-03T11:45:57.990Z,16.85
2023-05-03T11:48:45.373Z,16.56
2023-05-03T11:51:31.947Z,16.34
2023-05-03T11:54:24.849Z,16.19
2023-05-03T11:57:14.399Z,16.08
2023-05-03T12:00:17.237Z,16.04
2023-05-03T12:03:03.743Z,16.08
2023-05-03T12:05:53.084Z,16.13
2023-05-03T12:08:42.967Z,16.29
2023-05-03T12:11:43.552Z,16.51
2023-05-03T12:15:00.116Z,16.59
2023-05-03T12:17:50.054Z,16.58
2023-05-03T12:21:27.578Z,16.58
2023-05-03T12:23:46.653Z,16.48
2023-05-03T12:26:33.916Z,16.29
2023-05-03T12:29:22.424Z,16.19
2023-05-03T12:32:12.123Z,16.18
2023-05-03T12:35:02.094Z,16.14
2023-05-03T12:37:50.662Z,16.09
2023-05-03T12:40:39.417Z,16.31
2023-05-03T12:43:26.233Z,16.52
2023-05-03T12:46:33.185Z,17.01
2023-05-03T12:49:21.220Z,17.78
2023-05-03T12:55:03.125Z,19.82
2023-05-03T12:58:13.048Z,20.20
2023-05-03T13:04:05.227Z,19.33
2023-05-03T13:06:59.507Z,18.75
2023-05-03T13:12:54.157Z,18.05
2023-05-03T13:15:41.895Z,17.87
2023-05-03T13:18:28.679Z,17.94
2023-05-03T13:21:15.728Z,18.22
2023-05-03T13:24:02.406Z,18.52
2023-05-03T13:26:48.814Z,18.82
2023-05-03T13:29:35.567Z,19.16
2023-05-03T13:32:22.440Z,19.63
2023-05-03T13:35:09.720Z,19.75
2023-05-03T13:37:56.653Z,20.50
2023-05-03T13:40:42.852Z,21.72
2023-05-03T13:43:29.193Z,23.38
2023-05-03T13:46:15.868Z,24.55
2023-05-03T13:49:03.009Z,25.40
2023-05-03T13:51:49.531Z,25.74
2023-05-03T13:54:36.165Z,24.80
2023-05-03T13:57:23.192Z,23.48
2023-05-03T14:00:10.493Z,22.34
2023-05-03T14:02:57.164Z,21.45
2023-05-03T14:05:43.812Z,20.60
2023-05-03T14:08:30.214Z,19.87
2023-05-03T14:11:18.220Z,19.44
2023-05-03T14:14:04.627Z,19.08
2023-05-03T14:16:51.524Z,18.96
2023-05-03T14:19:39.196Z,20.46
2023-05-03T14:22:26.221Z,22.53
2023-05-03T14:25:12.954Z,23.24
2023-05-03T14:27:59.753Z,23.77
2023-05-03T14:30:45.926Z,24.83
2023-05-03T14:33:33.103Z,24.75
2023-05-03T14:36:19.336Z,24.41
2023-05-03T14:39:05.732Z,23.87
2023-05-03T14:41:52.227Z,23.38
2023-05-03T14:44:38.544Z,23.26
2023-05-03T14:47:24.854Z,22.24
2023-05-03T14:50:11.528Z,21.42
2023-05-03T14:52:58.083Z,20.98
2023-05-03T14:55:45.714Z,21.39
2023-05-03T14:58:33.104Z,21.20
2023-05-03T15:01:20.819Z,20.64
2023-05-03T15:04:10.779Z,20.08
2023-05-03T15:07:04.049Z,19.71
2023-05-03T15:09:51.151Z,19.27
2023-05-03T15:12:39.098Z,19.10
2023-05-03T15:15:25.649Z,19.04
2023-05-03T15:18:14.649Z,18.88
2023-05-03T15:21:01.133Z,18.58
2023-05-03T15:23:51.887Z,18.45
2023-05-03T15:26:38.473Z,18.42
2023-05-03T15:29:25.502Z,18.27
2023-05-03T15:32:12.129Z,18.04
2023-05-03T15:34:59.932Z,17.85
2023-05-03T15:37:46.576Z,17.70
2023-05-03T15:40:33.190Z,17.65
2023-05-03T15:43:19.695Z,17.74
2023-05-03T15:46:06.677Z,18.04
2023-05-03T15:48:55.004Z,18.47
2023-05-03T15:51:41.374Z,18.72
2023-05-03T15:54:27.691Z,18.74
2023-05-03T15:57:14.835Z,18.56
2023-05-03T16:00:01.983Z,18.50
2023-05-03T16:02:53.508Z,18.70
2023-05-03T16:05:40.251Z,18.83
2023-05-03T16:08:28.710Z,19.09
2023-05-03T16:11:15.168Z,19.11
2023-05-03T16:14:01.584Z,19.01
2023-05-03T16:16:48.613Z,19.21
2023-05-03T16:19:37.757Z,19.10
2023-05-03T16:22:24.880Z,18.74
2023-05-03T16:25:11.743Z,18.22
2023-05-03T16:27:58.354Z,17.81
2023-05-03T16:30:45.841Z,17.52
2023-05-03T16:33:32.143Z,17.33
2023-05-03T16:36:19.805Z,17.13
2023-05-03T16:39:06.052Z,16.83
2023-05-03T16:41:52.730Z,16.52
2023-05-03T16:44:39.593Z,16.24
2023-05-03T16:47:27.327Z,16.04
2023-05-03T16:50:14.065Z,15.92
2023-05-03T16:53:00.353Z,15.79
2023-05-03T16:55:47.089Z,15.69
2023-05-03T16:58:33.726Z,15.62
2023-05-03T17:01:20.109Z,15.56
2023-05-03T17:04:06.916Z,15.48
2023-05-03T17:06:53.875Z,15.39
2023-05-03T17:09:40.097Z,15.30
2023-05-03T17:12:26.819Z,15.22
2023-05-03T17:15:13.575Z,15.18
2023-05-03T17:18:02.782Z,15.13
2023-05-03T17:20:50.745Z,15.05
2023-05-03T17:23:39.404Z,14.99
2023-05-03T17:26:26.300Z,14.95
2023-05-03T17:29:13.245Z,14.90
2023-05-03T17:31:59.834Z,14.86
2023-05-03T17:34:46.702Z,14.81
2023-05-03T17:37:32.969Z,14.74
2023-05-03T17:40:19.330Z,14.67
2023-05-03T17:43:06.232Z,14.59
2023-05-03T17:45:52.530Z,14.52
2023-05-03T17:48:43.570Z,14.42
2023-05-03T17:51:32.241Z,14.33
2023-05-03T17:54:18.727Z,14.25
2023-05-03T17:57:05.654Z,14.15
2023-05-03T17:59:52.235Z,14.03
2023-05-03T18:02:38.898Z,13.92
2023-05-03T18:05:25.989Z,13.80
2023-05-03T18:08:12.421Z,13.67
2023-05-03T18:10:59.389Z,13.53
2023-05-03T18:13:45.829Z,13.42
2023-05-03T18:16:32.821Z,13.31
2023-05-03T18:19:19.391Z,13.19
2023-05-03T18:22:05.907Z,13.08
2023-05-03T18:24:55.431Z,12.99
2023-05-03T18:27:41.913Z,12.90
2023-05-03T18:30:29.178Z,12.81
2023-05-03T18:33:16.601Z,12.72
2023-05-03T18:36:05.981Z,12.62
2023-05-03T18:38:53.795Z,12.53
2023-05-03T18:41:40.160Z,12.42
2023-05-03T18:44:26.833Z,12.31
2023-05-03T18:47:15.375Z,12.21
2023-05-03T18:50:04.443Z,12.11
2023-05-03T18:52:51.431Z,12.01
2023-05-03T18:55:37.981Z,11.91
2023-05-03T18:58:24.217Z,11.78
2023-05-03T19:01:10.822Z,11.66
2023-05-03T19:03:57.879Z,11.51
2023-05-03T19:06:44.530Z,11.39
2023-05-03T19:09:32.376Z,11.29
2023-05-03T19:12:18.912Z,11.18
2023-05-03T19:15:05.643Z,11.09
2023-05-03T19:17:52.212Z,10.98
2023-05-03T19:20:38.570Z,10.87
2023-05-03T19:23:24.857Z,10.79
2023-05-03T19:26:11.368Z,10.71
2023-05-03T19:28:57.592Z,10.63
2023-05-03T19:31:44.188Z,10.50
2023-05-03T19:34:30.956Z,10.36
2023-05-03T19:37:17.370Z,10.22
2023-05-03T19:40:05.118Z,10.12
2023-05-03T19:42:52.455Z,10.04
2023-05-03T19:45:42.238Z,9.96
2023-05-03T19:48:28.834Z,9.88
2023-05-03T19:51:16.638Z,9.79
2023-05-03T19:54:03.307Z,9.65
2023-05-03T19:56:50.306Z,9.47
2023-05-03T19:59:36.767Z,9.31
2023-05-03T20:02:24.870Z,9.18
2023-05-03T20:05:11.813Z,9.12
2023-05-03T20:07:58.116Z,9.05
2023-05-03T20:10:46.437Z,8.97
2023-05-03T20:13:34.248Z,8.90
2023-05-03T20:16:21.876Z,8.79
2023-05-03T20:19:09.203Z,8.67
2023-05-03T20:21:55.554Z,8.58
2023-05-03T20:24:41.967Z,8.52
2023-05-03T20:27:28.154Z,8.47
2023-05-03T20:30:14.839Z,8.42
2023-05-03T20:33:01.285Z,8.37
2023-05-03T20:35:48.521Z,8.33
2023-05-03T20:38:35.273Z,8.25
2023-05-03T20:41:22.916Z,8.15
2023-05-03T20:44:09.419Z,8.03
2023-05-03T20:46:55.891Z,7.90
2023-05-03T20:49:42.443Z,7.72
2023-05-03T20:52:29.041Z,7.54
2023-05-03T20:55:15.370Z,7.44
2023-05-03T20:58:02.089Z,7.40
2023-05-03T21:00:51.678Z,7.40
2023-05-03T21:03:37.827Z,7.38
2023-05-03T21:06:24.332Z,7.36
2023-05-03T21:09:10.818Z,7.35
2023-05-03T21:11:58.237Z,7.34
2023-05-03T21:14:44.586Z,7.33
2023-05-03T21:17:31.090Z,7.32
2023-05-03T21:20:17.462Z,7.30
2023-05-03T21:23:05.331Z,7.28
2023-05-03T21:25:53.792Z,7.26
2023-05-03T21:28:42.021Z,7.22
2023-05-03T21:31:28.687Z,7.20
2023-05-03T21:34:15.101Z,7.18
2023-05-03T21:37:01.787Z,7.15
2023-05-03T21:40:00.454Z,7.11
2023-05-03T21:42:49.739Z,7.08
2023-05-03T21:45:36.131Z,7.05
2023-05-03T21:48:23.752Z,7.02
2023-05-03T21:51:18.000Z,7.01
2023-05-03T21:54:04.733Z,6.99
2023-05-03T21:56:51.225Z,6.99
2023-05-03T21:59:37.596Z,6.98
2023-05-03T22:02:24.279Z,6.96
2023-05-03T22:05:11.005Z,6.93
2023-05-03T22:07:57.634Z,6.90
2023-05-03T22:10:47.246Z,6.85
2023-05-03T22:13:34.633Z,7.34
2023-05-03T22:16:21.173Z,9.58
2023-05-03T22:19:08.305Z,11.31
2023-05-03T22:21:55.237Z,11.76
2023-05-03T22:24:41.583Z,10.65
2023-05-03T22:27:28.181Z,9.61
2023-05-03T22:30:14.694Z,8.92
2023-05-03T22:33:00.758Z,8.46
2023-05-03T22:35:47.182Z,8.12
2023-05-03T22:38:33.777Z,7.84
2023-05-03T22:41:20.895Z,7.55
2023-05-03T22:44:07.581Z,7.26
2023-05-03T22:46:54.073Z,7.04
2023-05-03T22:49:40.625Z,6.86
2023-05-03T22:52:27.532Z,6.69
2023-05-03T22:55:15.046Z,6.54
2023-05-03T22:58:01.464Z,6.42
2023-05-03T23:00:48.229Z,6.31
2023-05-03T23:03:34.906Z,6.20
2023-05-03T23:06:21.242Z,6.15
2023-05-03T23:09:07.769Z,6.10
2023-05-03T23:11:56.615Z,6.07
2023-05-03T23:14:45.799Z,6.54
2023-05-03T23:17:32.151Z,8.84
2023-05-03T23:20:18.721Z,10.63
2023-05-03T23:23:05.172Z,11.15
2023-05-03T23:25:52.215Z,10.01
2023-05-03T23:28:39.291Z,9.02
2023-05-03T23:31:27.051Z,8.40
2023-05-03T23:34:14.846Z,7.98
2023-05-03T23:37:01.402Z,7.66
2023-05-03T23:39:47.977Z,7.36
2023-05-03T23:42:34.452Z,7.10
2023-05-03T23:45:21.140Z,6.84
2023-05-03T23:48:08.406Z,6.59
2023-05-03T23:50:55.445Z,6.38
2023-05-03T23:53:42.207Z,6.18
2023-05-03T23:56:28.699Z,6.02
2023-05-03T23:59:15.181Z,6.42
